Time;durP1;ratioP1;P1;durP2;ratioP2;P2;SDS_P1;SDS_P2;PMS_P1;PMS_P2;Temp;Humidity;BMP_temperature;BMP_pressure;BME280_temperature;BME280_humidity;BME280_pressure;Samples;Min_cycle;Max_cycle;Signal;HPM_P1;HPM_P2
2024/01/18 00:01:52;;;;;;;;;;;5.70;99.90;;;;;;5057961;28;19909;-82
2024/01/18 00:04:18;;;;;;;;;;;5.70;99.90;;;;;;5059220;28;19919;-82
2024/01/18 00:06:43;;;;;;;;;;;5.80;99.90;;;;;;5059192;28;19900;-82
2024/01/18 00:09:09;;;;;;;;;;;5.70;99.90;;;;;;5058318;28;19909;-81
2024/01/18 00:11:34;;;;;;;;;;;5.60;99.90;;;;;;5058558;28;19976;-80
2024/01/18 00:14:01;;;;;;;;;;;5.60;99.90;;;;;;5070817;28;19940;-82
2024/01/18 00:16:27;;;;;;;;;;;5.80;99.90;;;;;;5075916;28;19893;-82
2024/01/18 00:18:52;;;;;;;;;;;5.80;99.90;;;;;;5055112;28;19920;-81
2024/01/18 00:21:18;;;;;;;;;;;5.80;99.90;;;;;;5053233;28;20340;-81
2024/01/18 00:23:43;;;;;;;;;;;5.60;99.90;;;;;;5052335;28;19955;-80
2024/01/18 00:26:09;;;;;;;;;;;5.70;99.90;;;;;;5053024;28;19920;-82
2024/01/18 00:28:35;;;;;;;;;;;5.80;99.90;;;;;;5054317;28;19909;-81
2024/01/18 00:31:00;;;;;;;;;;;5.90;99.90;;;;;;5071915;28;19992;-81
2024/01/18 00:33:26;;;;;;;;;;;5.90;99.90;;;;;;5054124;28;19912;-82
2024/01/18 00:35:52;;;;;;;;;;;5.80;99.90;;;;;;5072532;28;19905;-81
2024/01/18 00:38:17;;;;;;;;;;;5.70;99.90;;;;;;5053946;28;19917;-81
2024/01/18 00:40:43;;;;;;;;;;;5.70;99.90;;;;;;5055913;28;19916;-80
2024/01/18 00:43:09;;;;;;;;;;;5.70;99.90;;;;;;5072433;28;20373;-82
2024/01/18 00:45:35;;;;;;;;;;;5.60;99.90;;;;;;5055117;28;20416;-81
2024/01/18 00:48:01;;;;;;;;;;;5.60;99.90;;;;;;5071145;28;19913;-81
2024/01/18 00:50:26;;;;;;;;;;;5.50;99.90;;;;;;5047291;28;20370;-80
2024/01/18 00:52:52;;;;;;;;;;;5.50;99.90;;;;;;5045195;28;19932;-80
2024/01/18 00:55:17;;;;;;;;;;;5.60;99.90;;;;;;5047601;28;20435;-80
2024/01/18 00:57:43;;;;;;;;;;;5.50;99.90;;;;;;5064831;28;19913;-79
2024/01/18 01:00:09;;;;;;;;;;;5.60;99.90;;;;;;5047247;28;19915;-79
2024/01/18 01:02:34;;;;;;;;;;;5.70;99.90;;;;;;5044818;28;19927;-81
2024/01/18 01:05:00;;;;;;;;;;;5.70;99.90;;;;;;5051858;28;19912;-80
2024/01/18 01:07:25;;;;;;;;;;;5.90;99.90;;;;;;5046951;28;19987;-81
2024/01/18 01:09:51;;;;;;;;;;;5.90;99.90;;;;;;5045879;28;19931;-79
2024/01/18 01:12:16;;;;;;;;;;;5.80;99.90;;;;;;5046652;28;19931;-79
2024/01/18 01:14:42;;;;;;;;;;;5.70;99.90;;;;;;5045950;28;20280;-79
2024/01/18 01:17:07;;;;;;;;;;;5.80;99.90;;;;;;5045987;28;20015;-80
2024/01/18 01:19:33;;;;;;;;;;;5.80;99.90;;;;;;5047523;28;19964;-81
2024/01/18 01:21:58;;;;;;;;;;;5.70;99.90;;;;;;5049024;28;19921;-80
2024/01/18 01:24:24;;;;;;;;;;;5.50;99.90;;;;;;5045824;28;19936;-80
2024/01/18 01:26:50;;;;;;;;;;;5.60;99.90;;;;;;5047654;28;19925;-82
2024/01/18 01:29:16;;;;;;;;;;;5.60;99.90;;;;;;5053913;28;19909;-82
2024/01/18 01:31:43;;;;;;;;;;;5.40;99.90;;;;;;5035190;28;19959;-80
2024/01/18 01:34:08;;;;;;;;;;;5.50;99.90;;;;;;5029455;28;19913;-81
2024/01/18 01:36:34;;;;;;;;;;;5.40;99.90;;;;;;5046266;28;19931;-79
2024/01/18 01:38:59;;;;;;;;;;;5.80;99.90;;;;;;5031025;28;20004;-79
2024/01/18 01:41:25;;;;;;;;;;;5.60;99.90;;;;;;5048502;28;19935;-79
2024/01/18 01:43:58;;;;;;;;;;;5.50;99.90;;;;;;5051141;28;19935;-80
2024/01/18 01:46:24;;;;;;;;;;;5.50;99.90;;;;;;5050043;28;20342;-79
2024/01/18 01:48:50;;;;;;;;;;;5.50;99.90;;;;;;5051214;28;19972;-82
2024/01/18 01:51:15;;;;;;;;;;;5.50;99.90;;;;;;5068122;28;19932;-80
2024/01/18 01:53:41;;;;;;;;;;;5.60;99.90;;;;;;5052078;28;20337;-79
2024/01/18 01:56:06;;;;;;;;;;;5.80;99.90;;;;;;5051822;28;20309;-79
2024/01/18 01:58:32;;;;;;;;;;;5.90;99.90;;;;;;5069853;28;19908;-81
2024/01/18 02:00:58;;;;;;;;;;;5.80;99.90;;;;;;5048612;28;19919;-79
2024/01/18 02:03:24;;;;;;;;;;;5.80;99.90;;;;;;5064255;28;19909;-80
2024/01/18 02:05:49;;;;;;;;;;;5.80;99.90;;;;;;5045802;28;20405;-79
2024/01/18 02:08:15;;;;;;;;;;;5.80;99.90;;;;;;5047396;28;19912;-79
2024/01/18 02:10:41;;;;;;;;;;;5.60;99.90;;;;;;5046315;28;19909;-79
2024/01/18 02:13:06;;;;;;;;;;;5.60;99.90;;;;;;5066490;28;19988;-80
2024/01/18 02:15:33;;;;;;;;;;;5.50;99.90;;;;;;5051924;28;19909;-80
2024/01/18 02:17:59;;;;;;;;;;;5.60;99.90;;;;;;5045354;28;19908;-78
2024/01/18 02:20:25;;;;;;;;;;;5.80;99.90;;;;;;4956673;28;2411949;-78
2024/01/18 02:22:51;;;;;;;;;;;5.60;99.90;;;;;;5044272;28;19912;-80
2024/01/18 02:25:28;;;;;;;;;;;5.50;99.90;;;;;;5061819;28;19919;-79
2024/01/18 02:27:55;;;;;;;;;;;5.60;99.90;;;;;;5062437;28;19917;-79
2024/01/18 02:30:20;;;;;;;;;;;5.90;99.90;;;;;;5044488;28;19909;-78
2024/01/18 02:32:46;;;;;;;;;;;5.40;99.90;;;;;;5043731;28;20456;-79
2024/01/18 02:35:12;;;;;;;;;;;5.30;99.90;;;;;;5061733;28;20293;-79
2024/01/18 02:37:37;;;;;;;;;;;5.40;99.90;;;;;;5043022;28;19909;-79
2024/01/18 02:40:03;;;;;;;;;;;5.30;99.90;;;;;;5062616;28;19920;-79
2024/01/18 02:42:29;;;;;;;;;;;5.20;99.90;;;;;;5044819;28;19955;-79
2024/01/18 02:44:56;;;;;;;;;;;5.50;99.90;;;;;;5066213;28;19913;-80
2024/01/18 02:47:23;;;;;;;;;;;5.50;99.90;;;;;;5069228;28;19917;-80
2024/01/18 02:49:49;;;;;;;;;;;5.30;99.90;;;;;;5049907;28;19912;-79
2024/01/18 02:52:15;;;;;;;;;;;5.30;99.90;;;;;;5062434;28;19909;-80
2024/01/18 02:54:40;;;;;;;;;;;5.40;99.90;;;;;;5043457;28;20442;-79
2024/01/18 02:57:06;;;;;;;;;;;5.30;99.90;;;;;;5046985;28;20250;-79
2024/01/18 02:59:31;;;;;;;;;;;5.20;99.90;;;;;;5047017;28;19915;-78
2024/01/18 03:01:57;;;;;;;;;;;5.20;99.90;;;;;;5047709;28;19916;-82
2024/01/18 03:04:22;;;;;;;;;;;5.50;99.90;;;;;;5046390;28;19909;-78
2024/01/18 03:06:48;;;;;;;;;;;5.50;99.90;;;;;;5048612;28;19924;-80
2024/01/18 03:09:14;;;;;;;;;;;5.40;99.90;;;;;;5058676;28;19909;-81
2024/01/18 03:11:39;;;;;;;;;;;5.40;99.90;;;;;;5058884;28;20009;-82
2024/01/18 03:14:05;;;;;;;;;;;5.50;99.90;;;;;;5057812;28;19909;-81
2024/01/18 03:16:31;;;;;;;;;;;5.70;99.90;;;;;;5058290;28;19913;-82
2024/01/18 03:18:57;;;;;;;;;;;5.90;99.90;;;;;;5068230;28;19909;-80
2024/01/18 03:21:23;;;;;;;;;;;5.60;99.90;;;;;;5049180;28;19928;-79
2024/01/18 03:23:48;;;;;;;;;;;5.90;99.90;;;;;;5040840;28;19913;-78
2024/01/18 03:26:14;;;;;;;;;;;5.90;99.90;;;;;;5057712;28;19921;-78
2024/01/18 03:28:40;;;;;;;;;;;6.10;99.90;;;;;;5057354;28;19960;-78
2024/01/18 03:31:08;;;;;;;;;;;6.00;99.90;;;;;;5039959;28;19909;-79
2024/01/18 03:33:33;;;;;;;;;;;5.90;99.90;;;;;;5057569;28;19917;-78
2024/01/18 03:35:59;;;;;;;;;;;5.90;99.90;;;;;;5039402;28;20288;-78
2024/01/18 03:38:24;;;;;;;;;;;5.90;99.90;;;;;;5044750;28;19915;-80
2024/01/18 03:40:50;;;;;;;;;;;5.90;99.90;;;;;;5065500;28;19915;-79
2024/01/18 03:43:15;;;;;;;;;;;6.10;99.90;;;;;;5048717;28;19908;-79
2024/01/18 03:45:41;;;;;;;;;;;6.00;99.90;;;;;;5047879;28;19909;-79
2024/01/18 03:48:07;;;;;;;;;;;6.00;99.90;;;;;;5042244;28;19908;-78
2024/01/18 03:50:32;;;;;;;;;;;6.00;99.90;;;;;;5057063;28;20176;-78
2024/01/18 03:52:58;;;;;;;;;;;5.90;99.90;;;;;;5057253;28;20266;-78
2024/01/18 03:55:23;;;;;;;;;;;5.90;99.90;;;;;;5040127;28;19916;-78
2024/01/18 03:57:49;;;;;;;;;;;6.00;99.90;;;;;;5039309;28;19909;-78
2024/01/18 04:00:14;;;;;;;;;;;6.10;99.90;;;;;;5040435;28;19935;-78
2024/01/18 04:02:40;;;;;;;;;;;6.10;99.90;;;;;;5059313;28;20411;-78
2024/01/18 04:05:06;;;;;;;;;;;6.00;99.90;;;;;;5060611;28;20451;-79
2024/01/18 04:07:31;;;;;;;;;;;6.00;99.90;;;;;;5042830;28;19932;-80
2024/01/18 04:09:57;;;;;;;;;;;5.90;99.90;;;;;;5062263;28;19912;-79
2024/01/18 04:12:22;;;;;;;;;;;5.90;99.90;;;;;;5062405;28;19920;-78
2024/01/18 04:14:48;;;;;;;;;;;5.80;99.90;;;;;;5043029;28;19919;-80
2024/01/18 04:17:13;;;;;;;;;;;5.90;99.90;;;;;;5042660;28;19916;-79
2024/01/18 04:19:39;;;;;;;;;;;6.10;99.90;;;;;;5041466;28;19962;-79
2024/01/18 04:22:05;;;;;;;;;;;6.10;99.90;;;;;;5041466;28;19925;-79
2024/01/18 04:24:31;;;;;;;;;;;6.20;99.90;;;;;;5042230;28;19931;-80
2024/01/18 04:26:56;;;;;;;;;;;6.10;99.90;;;;;;5041999;28;19920;-80
2024/01/18 04:29:23;;;;;;;;;;;6.00;99.90;;;;;;5062333;28;19948;-79
2024/01/18 04:31:49;;;;;;;;;;;6.20;99.90;;;;;;5067241;28;19917;-79
2024/01/18 04:34:14;;;;;;;;;;;6.00;99.90;;;;;;5050087;28;20293;-80
2024/01/18 04:36:40;;;;;;;;;;;6.00;99.90;;;;;;5069420;28;19947;-80
2024/01/18 04:39:06;;;;;;;;;;;5.90;99.90;;;;;;5051809;28;19908;-81
2024/01/18 04:41:31;;;;;;;;;;;5.90;99.90;;;;;;5052375;28;19947;-80
2024/01/18 04:43:57;;;;;;;;;;;5.90;99.90;;;;;;5044402;28;19909;-80
2024/01/18 04:46:23;;;;;;;;;;;6.20;99.90;;;;;;5061701;28;19940;-78
2024/01/18 04:48:49;;;;;;;;;;;5.90;99.90;;;;;;5043719;28;19935;-79
2024/01/18 04:51:14;;;;;;;;;;;6.00;99.90;;;;;;5046685;28;19948;-81
2024/01/18 04:53:40;;;;;;;;;;;5.80;99.90;;;;;;5048389;28;19972;-80
2024/01/18 04:56:06;;;;;;;;;;;5.90;99.90;;;;;;5066181;28;19913;-81
2024/01/18 04:58:31;;;;;;;;;;;5.80;99.90;;;;;;5047006;28;19908;-80
2024/01/18 05:00:57;;;;;;;;;;;5.80;99.90;;;;;;5052257;28;19916;-81
2024/01/18 05:03:23;;;;;;;;;;;5.90;99.90;;;;;;5048464;28;19980;-80
2024/01/18 05:05:48;;;;;;;;;;;6.20;99.90;;;;;;5047918;28;20353;-78
2024/01/18 05:08:14;;;;;;;;;;;5.90;99.90;;;;;;5048063;28;19950;-82
2024/01/18 05:10:40;;;;;;;;;;;5.90;99.90;;;;;;5053113;28;19916;-81
2024/01/18 05:13:05;;;;;;;;;;;5.80;99.90;;;;;;5049642;28;19908;-80
2024/01/18 05:15:31;;;;;;;;;;;6.00;99.90;;;;;;5048154;28;19913;-79
2024/01/18 05:17:59;;;;;;;;;;;6.10;99.90;;;;;;5047269;28;19979;-80
2024/01/18 05:20:24;;;;;;;;;;;5.80;99.90;;;;;;5046969;28;19980;-79
2024/01/18 05:22:51;;;;;;;;;;;6.10;99.90;;;;;;5048516;28;19920;-80
2024/01/18 05:25:16;;;;;;;;;;;5.70;99.90;;;;;;5048310;28;19912;-80
2024/01/18 05:27:42;;;;;;;;;;;5.60;99.90;;;;;;5048965;28;19924;-80
2024/01/18 05:30:08;;;;;;;;;;;5.80;99.90;;;;;;5048664;28;19912;-80
2024/01/18 05:32:33;;;;;;;;;;;5.60;99.90;;;;;;5048539;28;19908;-80
2024/01/18 05:35:01;;;;;;;;;;;6.10;99.90;;;;;;5048399;28;19915;-80
2024/01/18 05:37:26;;;;;;;;;;;5.60;99.90;;;;;;5066220;28;20387;-81
2024/01/18 05:39:53;;;;;;;;;;;5.90;99.90;;;;;;5047401;28;19909;-79
2024/01/18 05:42:18;;;;;;;;;;;6.00;99.90;;;;;;5047903;28;19913;-80
2024/01/18 05:44:47;;;;;;;;;;;5.80;99.90;;;;;;5046600;28;19916;-79
2024/01/18 05:47:13;;;;;;;;;;;5.90;99.90;;;;;;5046399;28;19924;-80
2024/01/18 05:49:39;;;;;;;;;;;5.90;99.90;;;;;;5045775;28;19908;-80
2024/01/18 05:52:05;;;;;;;;;;;5.90;99.90;;;;;;5046860;28;19920;-79
2024/01/18 05:54:31;;;;;;;;;;;5.90;99.90;;;;;;5045488;28;19909;-79
2024/01/18 05:56:56;;;;;;;;;;;6.00;99.90;;;;;;5051943;28;19943;-83
2024/01/18 05:59:22;;;;;;;;;;;5.90;99.90;;;;;;5070867;28;19916;-79
2024/01/18 06:01:47;;;;;;;;;;;5.70;99.90;;;;;;5054587;28;19976;-80
2024/01/18 06:04:13;;;;;;;;;;;5.90;99.90;;;;;;5071525;28;19909;-81
2024/01/18 06:06:39;;;;;;;;;;;6.00;99.90;;;;;;5047443;28;19917;-81
2024/01/18 06:09:05;;;;;;;;;;;5.90;99.90;;;;;;5064563;28;19912;-79
2024/01/18 06:11:30;;;;;;;;;;;5.90;99.90;;;;;;5047916;28;19914;-83
2024/01/18 06:13:56;;;;;;;;;;;5.80;99.90;;;;;;5059898;28;19916;-81
2024/01/18 06:16:21;;;;;;;;;;;5.90;99.90;;;;;;5047022;28;19908;-80
2024/01/18 06:18:47;;;;;;;;;;;5.90;99.90;;;;;;5051449;28;19909;-82
2024/01/18 06:21:13;;;;;;;;;;;5.90;99.90;;;;;;5073232;28;19943;-81
2024/01/18 06:23:40;;;;;;;;;;;5.70;99.90;;;;;;5055765;28;19976;-83
2024/01/18 06:26:10;;;;;;;;;;;6.10;99.90;;;;;;5058044;28;19921;-82
2024/01/18 06:28:37;;;;;;;;;;;6.10;99.90;;;;;;5058934;28;19935;-81
2024/01/18 06:31:02;;;;;;;;;;;6.00;99.90;;;;;;5068378;28;19944;-82
2024/01/18 06:33:28;;;;;;;;;;;5.70;99.90;;;;;;5058350;28;19913;-81
2024/01/18 06:35:54;;;;;;;;;;;5.80;99.90;;;;;;5057805;28;19920;-81
2024/01/18 06:38:22;;;;;;;;;;;5.80;99.90;;;;;;5076204;28;19909;-82
2024/01/18 06:40:48;;;;;;;;;;;5.70;99.90;;;;;;5057323;28;19936;-81
2024/01/18 06:43:15;;;;;;;;;;;5.70;99.90;;;;;;5057942;28;19916;-81
2024/01/18 06:45:40;;;;;;;;;;;5.80;99.90;;;;;;5058827;28;19932;-81
2024/01/18 06:48:06;;;;;;;;;;;5.70;99.90;;;;;;5076448;28;20401;-82
2024/01/18 06:50:32;;;;;;;;;;;5.70;99.90;;;;;;5079696;28;20004;-83
2024/01/18 06:52:59;;;;;;;;;;;5.80;99.90;;;;;;5062240;28;19971;-81
2024/01/18 06:55:25;;;;;;;;;;;5.70;99.90;;;;;;5061216;28;19915;-82
2024/01/18 06:57:51;;;;;;;;;;;5.80;99.90;;;;;;5060904;28;19916;-82
2024/01/18 07:00:19;;;;;;;;;;;5.70;99.90;;;;;;5061392;28;19909;-83
2024/01/18 07:02:46;;;;;;;;;;;5.80;99.90;;;;;;5060645;28;19917;-82
2024/01/18 07:05:14;;;;;;;;;;;5.80;99.90;;;;;;5060821;28;19909;-82
2024/01/18 07:07:41;;;;;;;;;;;5.70;99.90;;;;;;5060181;28;19917;-81
2024/01/18 07:10:07;;;;;;;;;;;5.90;99.90;;;;;;5077676;28;19916;-82
2024/01/18 07:12:33;;;;;;;;;;;5.50;99.90;;;;;;5060401;28;19936;-82
2024/01/18 07:14:59;;;;;;;;;;;5.90;99.90;;;;;;5060340;28;19913;-82
2024/01/18 07:17:26;;;;;;;;;;;5.90;99.90;;;;;;5077329;28;19893;-82
2024/01/18 07:19:52;;;;;;;;;;;5.90;99.90;;;;;;5077250;28;19927;-83
2024/01/18 07:22:18;;;;;;;;;;;5.80;99.90;;;;;;5060433;28;19925;-82
2024/01/18 07:24:45;;;;;;;;;;;5.80;99.90;;;;;;5059692;28;19897;-82
2024/01/18 07:27:11;;;;;;;;;;;5.90;99.90;;;;;;5060547;28;19940;-82
2024/01/18 07:29:37;;;;;;;;;;;5.80;99.90;;;;;;5065695;28;19913;-80
2024/01/18 07:32:03;;;;;;;;;;;6.40;99.90;;;;;;5070304;28;19958;-82
2024/01/18 07:34:29;;;;;;;;;;;5.90;99.90;;;;;;5058954;28;19975;-81
2024/01/18 07:36:56;;;;;;;;;;;5.80;99.90;;;;;;5076510;28;19912;-82
2024/01/18 07:39:21;;;;;;;;;;;5.90;99.90;;;;;;5058687;28;19935;-81
2024/01/18 07:41:47;;;;;;;;;;;6.00;99.90;;;;;;5056446;28;19909;-82
2024/01/18 07:44:12;;;;;;;;;;;6.00;99.90;;;;;;5039099;28;19910;-82
2024/01/18 07:46:38;;;;;;;;;;;6.00;99.90;;;;;;5040128;28;19917;-83
2024/01/18 07:49:04;;;;;;;;;;;5.90;99.90;;;;;;5038918;28;19913;-81
2024/01/18 07:51:30;;;;;;;;;;;6.00;99.90;;;;;;5038030;28;19909;-81
2024/01/18 07:53:56;;;;;;;;;;;6.20;99.90;;;;;;5055033;28;19909;-79
2024/01/18 07:56:22;;;;;;;;;;;6.20;99.90;;;;;;5038110;28;19909;-82
2024/01/18 07:58:47;;;;;;;;;;;6.20;99.90;;;;;;5038489;28;19960;-81
2024/01/18 08:01:18;;;;;;;;;;;6.10;99.90;;;;;;5037353;28;19916;-80
2024/01/18 08:03:44;;;;;;;;;;;6.10;99.90;;;;;;5057500;28;19927;-82
2024/01/18 08:06:11;;;;;;;;;;;6.10;99.90;;;;;;5055961;28;19952;-81
2024/01/18 08:08:37;;;;;;;;;;;6.00;99.90;;;;;;5056529;28;19897;-82
2024/01/18 08:11:03;;;;;;;;;;;5.50;99.90;;;;;;5056536;28;19916;-82
2024/01/18 08:13:28;;;;;;;;;;;6.10;99.90;;;;;;5056477;28;19905;-82
2024/01/18 08:15:57;;;;;;;;;;;6.00;99.90;;;;;;5039338;28;19936;-83
2024/01/18 08:18:23;;;;;;;;;;;5.80;99.90;;;;;;5057362;28;19967;-83
2024/01/18 08:20:50;;;;;;;;;;;6.00;99.90;;;;;;5055479;28;19913;-82
2024/01/18 08:23:17;;;;;;;;;;;5.80;99.90;;;;;;5055516;28;19916;-80
2024/01/18 08:25:43;;;;;;;;;;;6.00;99.90;;;;;;5056214;28;19952;-82
2024/01/18 08:28:10;;;;;;;;;;;6.10;99.90;;;;;;5057561;28;19913;-82
2024/01/18 08:30:36;;;;;;;;;;;6.20;99.90;;;;;;5039861;28;19948;-82
2024/01/18 08:33:02;;;;;;;;;;;6.90;99.90;;;;;;5040266;28;19898;-83
2024/01/18 08:35:28;;;;;;;;;;;6.30;99.90;;;;;;5039659;28;19910;-81
2024/01/18 08:37:53;;;;;;;;;;;6.30;99.90;;;;;;5040178;28;19893;-83
2024/01/18 08:40:19;;;;;;;;;;;6.20;99.90;;;;;;5057581;28;19909;-82
2024/01/18 08:42:45;;;;;;;;;;;6.20;99.90;;;;;;5040065;28;19909;-82
2024/01/18 08:45:12;;;;;;;;;;;5.80;99.90;;;;;;5039481;28;19910;-83
2024/01/18 08:47:38;;;;;;;;;;;6.30;99.90;;;;;;5056065;28;19917;-83
2024/01/18 08:50:04;;;;;;;;;;;6.30;99.90;;;;;;5055922;28;19913;-81
2024/01/18 08:52:30;;;;;;;;;;;6.20;99.90;;;;;;5056900;28;19944;-83
2024/01/18 08:54:56;;;;;;;;;;;6.20;99.90;;;;;;5056972;28;19909;-83
2024/01/18 08:57:22;;;;;;;;;;;6.30;99.90;;;;;;5039949;28;19937;-83
2024/01/18 08:59:47;;;;;;;;;;;6.10;99.90;;;;;;5056552;28;19909;-83
2024/01/18 09:02:14;;;;;;;;;;;6.50;99.90;;;;;;5055281;28;19915;-82
2024/01/18 09:04:39;;;;;;;;;;;6.40;99.90;;;;;;5057420;28;19893;-82
2024/01/18 09:07:05;;;;;;;;;;;6.40;99.90;;;;;;5040880;28;19931;-82
2024/01/18 09:09:31;;;;;;;;;;;6.40;99.90;;;;;;5040395;28;19893;-84
2024/01/18 09:11:57;;;;;;;;;;;6.90;99.90;;;;;;5057071;28;19981;-82
2024/01/18 09:14:23;;;;;;;;;;;6.40;99.90;;;;;;5040177;28;20438;-82
2024/01/18 09:16:49;;;;;;;;;;;6.60;99.90;;;;;;5039919;28;19913;-83
2024/01/18 09:19:15;;;;;;;;;;;6.50;99.90;;;;;;5055488;28;19901;-83
2024/01/18 09:21:41;;;;;;;;;;;6.60;99.90;;;;;;5040179;28;19944;-83
2024/01/18 09:24:07;;;;;;;;;;;6.60;99.90;;;;;;5055944;28;20004;-82
2024/01/18 09:26:33;;;;;;;;;;;6.20;99.90;;;;;;5040117;28;19940;-81
2024/01/18 09:28:59;;;;;;;;;;;6.40;99.90;;;;;;5039961;28;19905;-81
2024/01/18 09:31:24;;;;;;;;;;;7.40;99.90;;;;;;5039941;28;19913;-82
2024/01/18 09:33:50;;;;;;;;;;;6.80;99.90;;;;;;5039914;28;19913;-82
2024/01/18 09:36:16;;;;;;;;;;;6.80;99.90;;;;;;5040337;28;19894;-83
2024/01/18 09:38:42;;;;;;;;;;;6.90;99.90;;;;;;5056924;28;19904;-82
2024/01/18 09:41:08;;;;;;;;;;;6.50;99.90;;;;;;5040044;28;19956;-83
2024/01/18 09:43:37;;;;;;;;;;;6.90;99.90;;;;;;5055799;28;19929;-81
2024/01/18 09:46:07;;;;;;;;;;;6.90;99.90;;;;;;5056274;28;19912;-83
2024/01/18 09:48:33;;;;;;;;;;;6.90;99.90;;;;;;5057116;28;19920;-82
2024/01/18 09:50:59;;;;;;;;;;;7.10;99.90;;;;;;5056268;28;19924;-81
2024/01/18 09:53:25;;;;;;;;;;;7.30;99.90;;;;;;5056303;28;19909;-82
2024/01/18 09:55:53;;;;;;;;;;;7.10;99.90;;;;;;5040186;28;19909;-82
2024/01/18 09:58:19;;;;;;;;;;;7.40;99.90;;;;;;5057293;28;19904;-82
2024/01/18 10:00:55;;;;;;;;;;;7.00;99.90;;;;;;5060523;28;19893;-83
2024/01/18 10:03:21;;;;;;;;;;;7.10;99.90;;;;;;5060861;28;19909;-82
2024/01/18 10:05:47;;;;;;;;;;;7.00;99.90;;;;;;5060114;28;19900;-82
2024/01/18 10:08:12;;;;;;;;;;;7.20;99.90;;;;;;5060543;28;19897;-82
2024/01/18 10:10:38;;;;;;;;;;;7.10;99.90;;;;;;5057797;28;19917;-81
2024/01/18 10:13:04;;;;;;;;;;;7.10;99.90;;;;;;5058393;28;19900;-80
2024/01/18 11:59:36;;;;;;;;;;;7.20;99.90;;;;;;5119243;28;19978;-80
2024/01/18 12:02:43;;;;;;;;;;;7.20;99.90;;;;;;5114846;28;19972;-80
2024/01/18 12:05:16;;;;;;;;;;;7.10;99.90;;;;;;5117936;28;19908;-81
2024/01/18 12:08:24;;;;;;;;;;;7.10;99.90;;;;;;5119404;28;19926;-80
2024/01/18 12:11:10;;;;;;;;;;;7.10;99.90;;;;;;5119517;28;19916;-81
2024/01/18 18:08:52;;;;;;;;;;;5.20;99.90;;;;;;5933115;22;20759;31
2024/01/18 18:11:27;;;;;;;;;;;5.40;99.90;;;;;;4996146;28;19926;-83
2024/01/18 18:14:32;;;;;;;;;;;5.20;99.90;;;;;;4996877;28;19899;-84
2024/01/18 18:17:28;;;;;;;;;;;5.30;99.90;;;;;;4996704;28;19933;-83
2024/01/18 18:20:18;;;;;;;;;;;5.10;99.90;;;;;;4999264;28;19910;-83
2024/01/18 18:23:13;;;;;;;;;;;4.90;99.90;;;;;;5001797;28;19906;-84
2024/01/18 18:25:48;;;;;;;;;;;4.90;99.90;;;;;;4982482;28;19898;-83
2024/01/18 18:28:14;;;;;;;;;;;4.80;99.90;;;;;;4952341;28;19919;-83
2024/01/18 18:30:47;;;;;;;;;;;4.70;99.90;;;;;;4979680;28;19910;-83
2024/01/18 18:33:13;;;;;;;;;;;4.60;99.90;;;;;;4965047;28;19969;-83
2024/01/18 18:35:39;;;;;;;;;;;4.80;99.90;;;;;;4998943;28;19901;-83
2024/01/18 18:38:14;;;;;;;;;;;4.70;99.90;;;;;;5001024;28;19946;-84
2024/01/18 18:40:48;;;;;;;;;;;4.70;99.90;;;;;;4973896;28;19910;-83
2024/01/18 18:43:16;;;;;;;;;;;4.70;99.90;;;;;;4974204;28;19914;-83
2024/01/18 18:46:13;;;;;;;;;;;4.90;99.90;;;;;;5001095;28;19910;-83
2024/01/18 18:49:03;;;;;;;;;;;4.50;99.90;;;;;;5001020;28;19918;-83
2024/01/18 18:51:54;;;;;;;;;;;4.40;99.90;;;;;;4985976;28;19899;-84
2024/01/18 18:54:26;;;;;;;;;;;4.40;99.90;;;;;;5000653;28;19917;-84
2024/01/18 18:57:06;;;;;;;;;;;4.50;99.90;;;;;;4982994;28;19913;-83
2024/01/18 18:59:35;;;;;;;;;;;4.30;99.90;;;;;;4998147;28;19914;-83
2024/01/18 19:02:30;;;;;;;;;;;4.40;99.90;;;;;;4993796;28;19921;-84
2024/01/18 19:05:17;;;;;;;;;;;4.40;99.90;;;;;;5000511;28;19906;-84
2024/01/18 19:33:01;;;;;;;;;;;4.30;99.90;;;;;;5325269;22;19975;-83
2024/01/18 19:35:30;;;;;;;;;;;4.20;99.90;;;;;;5096997;28;19979;-82
2024/01/18 19:38:22;;;;;;;;;;;4.10;99.90;;;;;;5098984;28;19899;-83
2024/01/18 19:41:12;;;;;;;;;;;3.70;99.90;;;;;;5098790;28;19908;-83
2024/01/18 19:43:58;;;;;;;;;;;3.80;99.90;;;;;;5081633;28;20373;-83
2024/01/18 19:46:45;;;;;;;;;;;3.90;99.90;;;;;;5093279;28;19922;-83
2024/01/18 19:49:17;;;;;;;;;;;3.90;99.90;;;;;;5098637;28;19913;-83
2024/01/18 19:51:43;;;;;;;;;;;3.80;99.90;;;;;;5097685;28;19914;-84
2024/01/18 19:54:15;;;;;;;;;;;3.90;99.90;;;;;;5091992;28;19908;-83
2024/01/18 19:56:42;;;;;;;;;;;3.70;99.90;;;;;;5098888;28;19893;-83
2024/01/18 19:59:18;;;;;;;;;;;3.40;99.90;;;;;;5081050;28;19935;-83
2024/01/18 20:01:47;;;;;;;;;;;3.40;99.90;;;;;;5098409;28;19926;-83
2024/01/18 20:04:25;;;;;;;;;;;3.60;99.90;;;;;;5098951;28;19916;-83
2024/01/18 20:07:22;;;;;;;;;;;3.90;99.90;;;;;;5094833;28;19920;-83
2024/01/18 20:10:14;;;;;;;;;;;3.10;99.90;;;;;;5096896;28;19909;-83
2024/01/18 20:12:46;;;;;;;;;;;3.70;99.90;;;;;;5096263;28;19892;-82
2024/01/18 20:15:23;;;;;;;;;;;3.70;99.90;;;;;;5097508;28;19908;-83
2024/01/18 20:17:50;;;;;;;;;;;3.80;99.90;;;;;;5097084;28;19934;-83
2024/01/18 20:20:29;;;;;;;;;;;3.90;99.90;;;;;;5098291;28;19939;-83
2024/01/18 20:23:02;;;;;;;;;;;3.80;99.90;;;;;;5096798;28;19915;-83
2024/01/18 20:25:52;;;;;;;;;;;4.00;99.90;;;;;;5097273;28;19900;-83
2024/01/18 20:28:54;;;;;;;;;;;3.90;99.90;;;;;;5097065;28;19932;-83
2024/01/18 20:31:30;;;;;;;;;;;3.80;99.90;;;;;;5097010;28;19892;-83
2024/01/18 20:34:23;;;;;;;;;;;4.00;99.90;;;;;;5106344;28;19920;-84
2024/01/18 20:42:40;;;;;;;;;;;4.00;99.90;;;;;;5447781;22;19924;-85
2024/01/18 20:45:21;;;;;;;;;;;4.10;99.90;;;;;;5070840;28;19896;-84
2024/01/18 20:48:12;;;;;;;;;;;4.10;99.90;;;;;;5076809;28;19980;-83
2024/01/18 20:50:59;;;;;;;;;;;4.10;99.90;;;;;;5060441;28;19952;-84
2024/01/18 20:53:31;;;;;;;;;;;4.20;99.90;;;;;;5059954;28;19972;-84
2024/01/18 20:56:23;;;;;;;;;;;4.20;99.90;;;;;;5060683;28;19913;-84
2024/01/18 20:59:17;;;;;;;;;;;4.10;99.90;;;;;;5043826;28;19913;-83
2024/01/18 21:01:56;;;;;;;;;;;4.00;99.90;;;;;;5076467;28;19900;-84
2024/01/18 21:04:29;;;;;;;;;;;4.30;99.90;;;;;;5058181;28;19960;-83
2024/01/18 21:07:06;;;;;;;;;;;4.40;99.90;;;;;;5065918;28;19921;-83
2024/01/18 21:09:57;;;;;;;;;;;4.50;99.90;;;;;;5077586;28;19919;-83
2024/01/18 21:12:47;;;;;;;;;;;4.50;99.90;;;;;;5072277;28;19892;-84
2024/01/18 21:15:25;;;;;;;;;;;4.40;99.90;;;;;;5074336;28;19956;-83
2024/01/18 21:18:02;;;;;;;;;;;4.10;99.90;;;;;;5046094;28;19908;-84
2024/01/18 21:21:00;;;;;;;;;;;4.40;99.90;;;;;;5078087;28;19944;-83
2024/01/18 21:23:47;;;;;;;;;;;4.30;99.90;;;;;;5066184;28;19912;-83
2024/01/18 21:27:06;;;;;;;;;;;4.30;99.90;;;;;;5046332;28;19943;-85
2024/01/18 21:29:48;;;;;;;;;;;4.40;99.90;;;;;;5052959;28;19919;-83
2024/01/18 21:32:46;;;;;;;;;;;4.40;99.90;;;;;;5077537;28;19913;-83
2024/01/18 21:35:58;;;;;;;;;;;4.40;99.90;;;;;;5076521;28;19917;-84
2024/01/18 21:38:39;;;;;;;;;;;4.60;99.90;;;;;;5060145;28;19931;-84
2024/01/18 21:41:08;;;;;;;;;;;4.30;99.90;;;;;;5059171;28;19917;-84
2024/01/18 21:44:09;;;;;;;;;;;4.40;99.90;;;;;;5076043;28;19905;-84
2024/01/18 21:46:57;;;;;;;;;;;4.60;99.90;;;;;;5069296;28;19917;-84
2024/01/18 21:49:35;;;;;;;;;;;4.70;99.90;;;;;;5067466;28;19951;-84
2024/01/18 21:55:16;;;;;;;;;;;4.80;99.90;;;;;;5037153;28;19930;-84
2024/01/18 21:58:36;;;;;;;;;;;4.80;99.90;;;;;;5046227;28;19929;-84
2024/01/18 22:01:30;;;;;;;;;;;4.80;99.90;;;;;;5044233;28;19977;-83
2024/01/18 22:04:38;;;;;;;;;;;4.90;99.90;;;;;;5061317;28;19936;-84
2024/01/18 22:07:33;;;;;;;;;;;4.90;99.90;;;;;;5050954;28;19912;-84
2024/01/18 22:10:22;;;;;;;;;;;5.00;99.90;;;;;;5056618;28;19901;-83
2024/01/18 22:12:51;;;;;;;;;;;5.00;99.90;;;;;;5063392;28;19893;-83
2024/01/18 22:44:24;;;;;;;;;;;5.40;99.90;;;;;;5983199;22;19928;-83
2024/01/18 22:46:59;;;;;;;;;;;5.70;99.90;;;;;;5092271;28;19924;-83
2024/01/18 22:49:31;;;;;;;;;;;5.50;99.90;;;;;;5093894;28;19900;-83
2024/01/18 22:52:13;;;;;;;;;;;5.30;99.90;;;;;;5100345;28;19979;-83
2024/01/18 22:54:40;;;;;;;;;;;5.20;99.90;;;;;;5097547;28;19912;-83
2024/01/18 22:57:21;;;;;;;;;;;5.30;99.90;;;;;;5094837;28;19936;-83
2024/01/18 22:59:57;;;;;;;;;;;5.30;99.90;;;;;;5116931;28;19912;-83
2024/01/18 23:02:31;;;;;;;;;;;5.30;99.90;;;;;;5094779;28;19915;-83
